createdAt,value
2022-11-19T00:01:16.906Z,97310.50
2022-11-19T00:04:23.515Z,97306.53
2022-11-19T00:07:36.703Z,97311.59
2022-11-19T00:10:44.756Z,97309.16
2022-11-19T00:13:54.195Z,97311.56
2022-11-19T00:17:01.547Z,97304.34
2022-11-19T00:20:12.558Z,97303.53
2022-11-19T00:23:21.153Z,97300.34
2022-11-19T00:26:31.112Z,97299.25
2022-11-19T00:29:44.412Z,97299.53
2022-11-19T00:32:51.893Z,97290.72
2022-11-19T00:36:00.457Z,97291.00
2022-11-19T00:39:15.690Z,97288.31
2022-11-19T00:42:23.835Z,97278.19
2022-11-19T00:45:46.954Z,97276.56
2022-11-19T00:48:57.380Z,97273.38
2022-11-19T00:52:06.743Z,97279.03
2022-11-19T00:55:16.799Z,97282.78
2022-11-19T00:58:27.012Z,97289.00
2022-11-19T01:01:40.844Z,97290.06
2022-11-19T01:04:49.664Z,97288.97
2022-11-19T01:07:59.549Z,97289.25
2022-11-19T01:11:12.298Z,97286.06
2022-11-19T01:14:25.304Z,97287.38
2022-11-19T01:17:38.075Z,97294.09
2022-11-19T01:20:46.441Z,97302.16
2022-11-19T01:23:54.570Z,97298.19
2022-11-19T01:27:05.722Z,97302.53
2022-11-19T01:30:14.909Z,97303.38
2022-11-19T01:33:30.866Z,97308.41
2022-11-19T01:36:39.401Z,97298.25
2022-11-19T01:39:47.515Z,97310.53
2022-11-19T01:42:59.378Z,97295.84
2022-11-19T01:46:07.355Z,97302.78
2022-11-19T01:49:20.486Z,97302.03
2022-11-19T01:52:32.363Z,97303.06
2022-11-19T01:55:47.061Z,97298.53
2022-11-19T01:59:14.919Z,97303.88
2022-11-19T02:06:01.010Z,97313.31
2022-11-19T02:09:22.992Z,97310.16
2022-11-19T02:16:34.165Z,97314.47
2022-11-19T02:20:28.957Z,97309.69
2022-11-19T02:24:11.760Z,97305.97
2022-11-19T02:27:43.692Z,97310.22
2022-11-19T02:31:05.608Z,97308.91
2022-11-19T02:34:29.393Z,97309.97
2022-11-19T02:37:52.692Z,97319.06
2022-11-19T02:41:28.601Z,97314.00
2022-11-19T02:48:40.056Z,97315.59
2022-11-19T02:52:21.550Z,97325.97
2022-11-19T02:55:52.848Z,97321.94
2022-11-19T02:59:29.001Z,97318.22
2022-11-19T03:03:02.084Z,97331.53
2022-11-19T03:06:29.093Z,97324.56
2022-11-19T03:09:47.647Z,97333.13
2022-11-19T03:20:57.458Z,97332.28
2022-11-19T03:24:41.093Z,97342.16
2022-11-19T03:28:13.274Z,97343.75
2022-11-19T03:31:24.749Z,97338.66
2022-11-19T03:38:48.739Z,97341.00
2022-11-19T03:42:04.025Z,97337.78
2022-11-19T03:45:21.369Z,97334.28
2022-11-19T03:48:45.972Z,97342.59
2022-11-19T03:52:04.641Z,97342.06
2022-11-19T04:02:21.651Z,97353.81
2022-11-19T04:05:41.734Z,97353.00
2022-11-19T04:08:59.825Z,97357.78
2022-11-19T04:12:14.059Z,97358.59
2022-11-19T04:15:21.764Z,97349.44
2022-11-19T04:18:32.917Z,97358.78
2022-11-19T04:21:44.482Z,97355.84
2022-11-19T04:24:55.169Z,97353.97
2022-11-19T04:28:19.184Z,97351.81
2022-11-19T04:35:27.610Z,97349.16
2022-11-19T04:38:42.526Z,97353.16
2022-11-19T04:41:56.442Z,97349.44
2022-11-19T04:45:17.978Z,97344.63
2022-11-19T04:48:48.799Z,97353.44
2022-11-19T04:52:37.699Z,97353.44
2022-11-19T04:56:09.764Z,97355.59
2022-11-19T04:59:30.563Z,97361.44
2022-11-19T05:02:57.105Z,97362.50
2022-11-19T05:06:07.474Z,97362.72
2022-11-19T05:09:23.516Z,97356.81
2022-11-19T05:12:45.263Z,97356.00
2022-11-19T05:16:03.412Z,97359.22
2022-11-19T05:19:14.539Z,97358.16
2022-11-19T05:22:46.678Z,97360.81
2022-11-19T05:26:07.623Z,97364.56
2022-11-19T05:29:18.183Z,97358.38
2022-11-19T05:32:41.883Z,97358.97
2022-11-19T05:35:50.310Z,97357.34
2022-11-19T05:39:21.883Z,97360.28
2022-11-19T05:42:49.619Z,97356.81
2022-11-19T05:46:07.788Z,97360.25
2022-11-19T05:49:23.078Z,97357.81
2022-11-19T05:56:15.612Z,97355.44
2022-11-19T05:59:47.433Z,97358.38
2022-11-19T06:03:02.686Z,97365.34
2022-11-19T06:09:49.987Z,97373.88
2022-11-19T06:13:09.697Z,97368.31
2022-11-19T06:16:31.145Z,97374.72
2022-11-19T06:19:54.665Z,97376.06
2022-11-19T06:23:09.433Z,97382.25
2022-11-19T06:26:33.229Z,97383.38
2022-11-19T06:29:41.698Z,97381.81
2022-11-19T06:32:50.403Z,97389.03
2022-11-19T06:36:00.220Z,97393.03
2022-11-19T06:39:06.878Z,97398.13
2022-11-19T06:42:30.343Z,97397.84
2022-11-19T06:45:45.866Z,97404.81
2022-11-19T06:48:55.889Z,97400.81
2022-11-19T06:52:10.680Z,97404.56
2022-11-19T06:55:23.693Z,97415.78
2022-11-19T06:58:38.850Z,97428.06
2022-11-19T07:01:47.707Z,97418.19
2022-11-19T07:05:07.132Z,97417.94
2022-11-19T07:08:14.972Z,97422.22
2022-11-19T07:11:31.776Z,97421.38
2022-11-19T07:14:45.621Z,97427.03
2022-11-19T07:17:57.357Z,97429.94
2022-11-19T07:21:12.110Z,97436.63
2022-11-19T07:24:22.652Z,97437.16
2022-11-19T07:27:32.010Z,97433.16
2022-11-19T07:30:46.420Z,97443.03
2022-11-19T07:33:57.542Z,97444.63
2022-11-19T07:37:09.832Z,97444.63
2022-11-19T07:40:18.919Z,97455.56
2022-11-19T07:43:30.479Z,97457.13
2022-11-19T07:46:39.606Z,97450.19
2022-11-19T07:49:53.134Z,97457.66
2022-11-19T07:53:02.804Z,97456.53
2022-11-19T07:56:11.846Z,97457.03
2022-11-19T07:59:20.007Z,97454.81
2022-11-19T08:02:28.649Z,97453.41
2022-11-19T08:05:43.622Z,97445.88
2022-11-19T08:08:57.905Z,97451.38
2022-11-19T08:12:19.500Z,97454.81
2022-11-19T08:15:30.305Z,97449.19
2022-11-19T08:18:38.098Z,97456.66
2022-11-19T08:21:50.795Z,97446.75
2022-11-19T08:25:08.561Z,97449.69
2022-11-19T08:28:22.921Z,97457.72
2022-11-19T08:31:46.035Z,97457.19
2022-11-19T08:34:54.121Z,97467.31
2022-11-19T08:38:01.965Z,97466.78
2022-11-19T08:41:29.522Z,97473.41
2022-11-19T08:44:41.441Z,97472.47
2022-11-19T08:47:50.484Z,97473.16
2022-11-19T08:51:30.008Z,97472.84
2022-11-19T08:54:40.448Z,97481.03
2022-11-19T08:57:54.796Z,97478.63
2022-11-19T09:01:04.062Z,97479.06
2022-11-19T09:04:15.061Z,97473.56
2022-11-19T09:07:28.213Z,97488.22
2022-11-19T09:10:40.481Z,97484.13
2022-11-19T09:13:50.031Z,97489.47
2022-11-19T09:16:58.151Z,97500.38
2022-11-19T09:20:12.025Z,97502.47
2022-11-19T09:23:29.927Z,97499.22
2022-11-19T09:26:44.823Z,97503.56
2022-11-19T09:30:02.660Z,97499.53
2022-11-19T09:33:12.972Z,97516.38
2022-11-19T09:36:31.368Z,97517.50
2022-11-19T09:39:38.490Z,97520.22
2022-11-19T09:43:00.364Z,97519.25
2022-11-19T09:46:25.466Z,97520.63
2022-11-19T09:49:44.230Z,97514.22
2022-11-19T09:53:04.685Z,97516.16
2022-11-19T09:56:32.894Z,97514.31
2022-11-19T09:59:44.113Z,97513.28
2022-11-19T10:02:57.961Z,97514.06
2022-11-19T10:06:35.746Z,97523.16
2022-11-19T10:10:12.912Z,97517.00
2022-11-19T10:13:39.294Z,97518.53
2022-11-19T10:17:01.760Z,97519.41
2022-11-19T10:20:36.945Z,97512.16
2022-11-19T10:23:57.239Z,97506.19
2022-11-19T10:27:19.913Z,97509.06
2022-11-19T10:30:40.789Z,97506.09
2022-11-19T10:33:59.587Z,97502.81
2022-11-19T10:37:17.809Z,97502.53
2022-11-19T10:40:32.399Z,97501.19
2022-11-19T10:43:47.697Z,97507.78
2022-11-19T10:46:58.837Z,97500.72
2022-11-19T10:50:11.725Z,97496.72
2022-11-19T10:53:40.178Z,97494.56
2022-11-19T10:56:52.366Z,97498.31
2022-11-19T11:00:05.792Z,97498.44
2022-11-19T11:03:29.419Z,97495.53
2022-11-19T11:06:55.369Z,97492.03
2022-11-19T11:18:27.557Z,97482.81
2022-11-19T11:29:41.503Z,97486.53
2022-11-19T11:51:52.151Z,97486.28
2022-11-19T11:55:02.733Z,97476.47
2022-11-19T11:58:44.088Z,97485.88
2022-11-19T12:06:05.687Z,97495.41
2022-11-19T12:09:28.009Z,97492.28
2022-11-19T12:13:17.545Z,97485.59
2022-11-19T12:20:29.254Z,97490.00
2022-11-19T12:23:59.984Z,97490.53
2022-11-19T12:27:24.631Z,97482.94
2022-11-19T12:30:41.579Z,97484.50
2022-11-19T12:34:04.622Z,97492.31
2022-11-19T12:37:26.892Z,97482.41
2022-11-19T12:40:54.863Z,97483.75
2022-11-19T12:44:14.642Z,97489.09
2022-11-19T12:48:08.196Z,97485.97
2022-11-19T12:51:54.570Z,97485.22
2022-11-19T12:55:16.792Z,97493.16
2022-11-19T12:58:39.489Z,97495.34
2022-11-19T13:02:11.682Z,97494.28
2022-11-19T13:05:33.864Z,97499.38
2022-11-19T13:08:47.546Z,97502.88
2022-11-19T13:12:17.587Z,97505.59
2022-11-19T13:15:44.260Z,97491.34
2022-11-19T13:19:13.943Z,97497.50
2022-11-19T13:22:31.775Z,97493.19
2022-11-19T13:26:05.457Z,97492.97
2022-11-19T13:29:43.905Z,97487.34
2022-11-19T13:33:11.679Z,97488.16
2022-11-19T13:36:30.545Z,97496.97
2022-11-19T13:39:59.736Z,97490.97
2022-11-19T13:43:33.335Z,97493.44
2022-11-19T13:47:04.933Z,97485.16
2022-11-19T13:50:27.708Z,97494.19
2022-11-19T13:53:41.914Z,97501.59
2022-11-19T14:00:43.470Z,97496.25
2022-11-19T14:04:21.204Z,97497.78
2022-11-19T14:07:52.048Z,97493.78
2022-11-19T14:11:25.250Z,97496.53
2022-11-19T14:15:06.942Z,97508.56
2022-11-19T14:18:51.559Z,97501.34
2022-11-19T14:22:22.377Z,97494.59
2022-11-19T14:26:05.192Z,97498.00
2022-11-19T14:29:50.740Z,97498.00
2022-11-19T14:33:19.153Z,97498.81
2022-11-19T14:37:00.261Z,97503.63
2022-11-19T14:40:30.975Z,97503.56
2022-11-19T14:44:17.109Z,97500.88
2022-11-19T14:47:41.874Z,97506.56
2022-11-19T14:51:15.998Z,97516.19
2022-11-19T14:54:39.979Z,97506.84
2022-11-19T14:57:45.634Z,97513.34
2022-11-19T15:01:07.067Z,97510.19
2022-11-19T15:04:14.836Z,97515.31
2022-11-19T15:07:36.143Z,97519.88
2022-11-19T15:11:06.918Z,97512.91
2022-11-19T15:14:58.078Z,97519.34
2022-11-19T15:18:22.053Z,97514.84
2022-11-19T15:21:45.099Z,97510.22
2022-11-19T15:25:08.203Z,97506.25
2022-11-19T15:28:31.198Z,97516.22
2022-11-19T15:31:55.753Z,97511.31
2022-11-19T15:35:21.439Z,97511.03
2022-11-19T15:38:33.550Z,97523.00
2022-11-19T15:41:42.010Z,97518.25
2022-11-19T15:44:54.995Z,97518.91
2022-11-19T15:48:12.254Z,97523.50
2022-11-19T15:51:19.223Z,97527.84
2022-11-19T15:54:30.027Z,97517.22
2022-11-19T15:57:34.932Z,97522.91
2022-11-19T16:00:48.141Z,97526.69
2022-11-19T16:03:54.526Z,97534.75
2022-11-19T16:06:59.984Z,97534.81
2022-11-19T16:10:06.010Z,97542.09
2022-11-19T16:13:41.622Z,97544.28
2022-11-19T16:17:19.226Z,97540.59
2022-11-19T16:20:24.413Z,97537.69
2022-11-19T16:23:29.903Z,97544.09
2022-11-19T16:26:39.137Z,97559.03
2022-11-19T16:29:48.207Z,97556.63
2022-11-19T16:32:57.890Z,97557.13
2022-11-19T16:36:16.700Z,97552.59
2022-11-19T16:39:25.447Z,97563.56
2022-11-19T16:42:31.430Z,97557.97
2022-11-19T16:45:36.982Z,97561.44
2022-11-19T16:48:57.990Z,97553.97
2022-11-19T16:52:03.523Z,97562.25
2022-11-19T16:55:43.227Z,97565.16
2022-11-19T16:58:48.683Z,97561.44
2022-11-19T17:02:00.093Z,97567.81
2022-11-19T17:05:11.251Z,97568.09
2022-11-19T17:08:24.422Z,97583.31
2022-11-19T17:11:59.296Z,97571.59
2022-11-19T17:15:24.764Z,97576.13
2022-11-19T17:18:32.453Z,97583.59
2022-11-19T17:21:38.844Z,97579.34
2022-11-19T17:24:45.429Z,97596.41
2022-11-19T17:27:54.922Z,97587.59
2022-11-19T17:31:01.152Z,97601.22
2022-11-19T17:34:12.759Z,97602.25
2022-11-19T17:37:20.763Z,97605.75
2022-11-19T17:40:25.348Z,97602.00
2022-11-19T17:43:51.294Z,97597.72
2022-11-19T17:46:56.266Z,97598.81
2022-11-19T17:50:00.468Z,97602.28
2022-11-19T17:53:06.876Z,97600.69
2022-11-19T17:56:19.965Z,97599.06
2022-11-19T17:59:24.588Z,97598.81
2022-11-19T18:02:29.607Z,97605.47
2022-11-19T18:05:36.891Z,97611.09
2022-11-19T18:08:43.228Z,97610.28
2022-11-19T18:11:48.741Z,97607.88
2022-11-19T18:15:00.805Z,97607.09
2022-11-19T18:18:09.949Z,97607.06
2022-11-19T18:21:17.074Z,97608.13
2022-11-19T18:24:30.515Z,97606.53
2022-11-19T18:27:37.074Z,97612.16
2022-11-19T18:30:42.808Z,97619.06
2022-11-19T18:33:54.633Z,97607.34
2022-11-19T18:37:01.125Z,97611.06
2022-11-19T18:40:08.762Z,97603.88
2022-11-19T18:43:37.463Z,97616.13
2022-11-19T18:46:44.110Z,97614.56
2022-11-19T18:49:49.642Z,97612.66
2022-11-19T18:52:57.997Z,97621.47
2022-11-19T18:56:05.117Z,97621.75
2022-11-19T18:59:12.834Z,97615.09
2022-11-19T19:02:18.289Z,97628.16
2022-11-19T19:05:23.457Z,97628.16
2022-11-19T19:08:29.652Z,97627.63
2022-11-19T19:11:52.849Z,97626.56
2022-11-19T19:14:57.956Z,97626.81
2022-11-19T19:18:07.635Z,97628.94
2022-11-19T19:21:15.169Z,97635.59
2022-11-19T19:24:19.673Z,97638.03
2022-11-19T19:27:25.992Z,97655.91
2022-11-19T19:30:31.034Z,97653.22
2022-11-19T19:33:36.324Z,97658.81
2022-11-19T19:36:40.933Z,97647.09
2022-11-19T19:39:45.682Z,97653.50
2022-11-19T19:42:52.080Z,97653.22
2022-11-19T19:45:57.070Z,97657.22
2022-11-19T19:49:02.243Z,97660.19
2022-11-19T19:52:07.564Z,97658.28
2022-11-19T19:55:12.336Z,97653.22
2022-11-19T19:58:19.596Z,97654.56
2022-11-19T20:01:27.675Z,97664.16
2022-11-19T20:04:34.446Z,97675.91
2022-11-19T20:07:39.616Z,97666.84
2022-11-19T20:10:44.325Z,97667.13
2022-11-19T20:13:53.464Z,97670.56
2022-11-19T20:16:58.322Z,97680.16
2022-11-19T20:20:05.723Z,97682.56
2022-11-19T20:23:10.368Z,97687.09
2022-11-19T20:26:17.406Z,97683.09
2022-11-19T20:29:24.219Z,97677.22
2022-11-19T20:32:29.103Z,97675.63
2022-11-19T20:35:34.085Z,97687.59
2022-11-19T20:38:38.732Z,97689.44
2022-11-19T20:42:00.694Z,97689.44
2022-11-19T20:45:08.703Z,97689.97
2022-11-19T20:48:14.119Z,97695.31
2022-11-19T20:51:20.419Z,97698.75
2022-11-19T20:54:25.870Z,97698.53
2022-11-19T20:57:30.436Z,97700.66
2022-11-19T21:00:37.318Z,97709.47
2022-11-19T21:03:42.445Z,97706.56
2022-11-19T21:06:47.733Z,97709.47
2022-11-19T21:09:52.403Z,97709.69
2022-11-19T21:13:06.036Z,97705.13
2022-11-19T21:16:14.799Z,97703.22
2022-11-19T21:19:19.814Z,97708.50
2022-11-19T21:22:24.530Z,97702.91
2022-11-19T21:25:29.267Z,97705.31
2022-11-19T21:28:34.325Z,97705.31
2022-11-19T21:31:42.457Z,97705.53
2022-11-19T21:34:46.955Z,97709.53
2022-11-19T21:37:51.696Z,97700.75
2022-11-19T21:40:59.745Z,97700.50
2022-11-19T21:44:06.008Z,97689.81
2022-11-19T21:47:12.873Z,97697.03
2022-11-19T21:50:18.481Z,97696.78
2022-11-19T21:53:25.083Z,97688.50
2022-11-19T21:56:35.526Z,97694.69
2022-11-19T21:59:43.017Z,97697.34
2022-11-19T22:02:49.551Z,97699.16
2022-11-19T22:06:01.369Z,97693.63
2022-11-19T22:09:06.832Z,97700.56
2022-11-19T22:12:12.060Z,97693.88
2022-11-19T22:15:17.324Z,97705.34
2022-11-19T22:18:23.597Z,97702.13
2022-11-19T22:21:29.370Z,97702.91
2022-11-19T22:24:34.299Z,97711.16
2022-11-19T22:27:39.035Z,97709.31
2022-11-19T22:30:44.180Z,97703.72
2022-11-19T22:33:52.229Z,97696.81
2022-11-19T22:36:56.944Z,97703.47
2022-11-19T22:40:00.158Z,97705.09
2022-11-19T22:43:02.812Z,97698.41
2022-11-19T22:46:06.502Z,97693.06
2022-11-19T22:49:10.529Z,97693.06
2022-11-19T22:52:14.604Z,97698.91
2022-11-19T22:55:17.426Z,97691.16
2022-11-19T22:58:20.112Z,97694.63
2022-11-19T23:01:24.486Z,97697.31
2022-11-19T23:04:29.011Z,97693.34
2022-11-19T23:07:33.479Z,97687.75
2022-11-19T23:10:36.269Z,97690.66
2022-11-19T23:13:40.065Z,97702.13
2022-11-19T23:16:43.527Z,97692.03
2022-11-19T23:19:47.515Z,97681.31
2022-11-19T23:22:50.251Z,97681.88
2022-11-19T23:25:56.359Z,97690.34
2022-11-19T23:28:59.262Z,97688.22
2022-11-19T23:32:01.941Z,97688.47
2022-11-19T23:35:06.425Z,97689.22
2022-11-19T23:38:09.149Z,97688.66
2022-11-19T23:41:14.255Z,97695.06
2022-11-19T23:44:16.980Z,97690.28
2022-11-19T23:47:19.999Z,97687.63
2022-11-19T23:50:24.211Z,97688.38
2022-11-19T23:53:26.845Z,97698.22
2022-11-19T23:56:31.475Z,97692.63
2022-11-19T23:59:36.072Z,97696.31
